PWSweather.com
Personal Weather Stations
Station Observations
DAVIS2016
WorthingGB

WorthingGB

Lat: 50.8130266, Lon: -0.3832443000000012

Elevation: 34.8

Station Type: davis vantage vue 6250

High Low Average
Temperature 54.1°F12.3°C 48.6°F9.2°C 52.0°F11.1°C
Dew Point 53.5°F11.9°C 44.7°F7.1°C 50.2°F10.1°C
Winds 14.0 mph 22.5 kmh 1.0 mph 1.6 kmh 7.0 mph SW11.3 kmh SW
Wind Gusts 26.0 mph41.8 kmh 3.0 mph4.8 kmh 15.0 mph24.1 kmh
Humidity 98% 83% 94%
Pressure 29.86 in1011.2 mb 29.46 in997.6 mb -
Precipitation 0.62 in15.7 mm - -
Hour Temp Dew Point Humidity Winds Wind Gusts Pressure Precip Precip Rate Daily Precip Total
12:00 AM 49.8°F9.9°C 45.5°F7.5°C 85% 4.0 mph WSW6.4 kmh WSW 11.0 mph17.7 kmh 29.86 in1011.2 mb 0.00 in0.0 mm 0.00 in0.0 mm 0.00 in0.0 mm
12:15 AM 49.7°F9.8°C 44.7°F7.1°C 83% 3.0 mph WSW4.8 kmh WSW 8.0 mph12.9 kmh 29.86 in1011.2 mb 0.00 in0.0 mm 0.00 in0.0 mm 0.00 in0.0 mm
12:30 AM 50.0°F10.0°C 45.4°F7.4°C 84% 2.0 mph SW3.2 kmh SW 8.0 mph12.9 kmh 29.85 in1010.8 mb 0.00 in0.0 mm 0.00 in0.0 mm 0.00 in0.0 mm
12:45 AM 49.9°F9.9°C 45.6°F7.6°C 85% 2.0 mph SW3.2 kmh SW 8.0 mph12.9 kmh 29.84 in1010.5 mb 0.00 in0.0 mm 0.00 in0.0 mm 0.00 in0.0 mm
01:00 AM 50.5°F10.3°C 46.2°F7.9°C 85% 4.0 mph SW6.4 kmh SW 9.0 mph14.5 kmh 29.84 in1010.5 mb 0.00 in0.0 mm 0.00 in0.0 mm 0.00 in0.0 mm
01:15 AM 50.1°F10.1°C 46.4°F8.0°C 87% 5.0 mph SW8.0 kmh SW 13.0 mph20.9 kmh 29.84 in1010.5 mb 0.02 in0.5 mm 0.08 in2.0 mm 0.02 in0.5 mm
01:30 AM 49.0°F9.4°C 46.2°F7.9°C 90% 2.0 mph SW3.2 kmh SW 5.0 mph8.0 kmh 29.84 in1010.5 mb 0.04 in1.0 mm 0.08 in2.0 mm 0.04 in1.0 mm
01:45 AM 48.9°F9.4°C 45.8°F7.7°C 89% 2.0 mph SW3.2 kmh SW 6.0 mph9.7 kmh 29.83 in1010.2 mb 0.04 in1.0 mm 0.00 in0.0 mm 0.04 in1.0 mm
02:00 AM 48.6°F9.2°C 45.2°F7.3°C 88% 1.0 mph SW1.6 kmh SW 3.0 mph4.8 kmh 29.83 in1010.2 mb 0.04 in1.0 mm 0.00 in0.0 mm 0.04 in1.0 mm
02:15 AM 48.6°F9.2°C 45.5°F7.5°C 89% 1.0 mph SW1.6 kmh SW 5.0 mph8.0 kmh 29.83 in1010.2 mb 0.02 in0.5 mm 0.00 in0.0 mm 0.04 in1.0 mm
02:30 AM 49.2°F9.6°C 46.1°F7.8°C 89% 1.0 mph SW1.6 kmh SW 4.0 mph6.4 kmh 29.83 in1010.2 mb 0.00 in0.0 mm 0.00 in0.0 mm 0.04 in1.0 mm
02:45 AM 50.1°F10.1°C 47.0°F8.3°C 89% 2.0 mph SW3.2 kmh SW 8.0 mph12.9 kmh 29.82 in1009.8 mb 0.00 in0.0 mm 0.00 in0.0 mm 0.04 in1.0 mm
03:00 AM 51.0°F10.6°C 47.3°F8.5°C 87% 4.0 mph SW6.4 kmh SW 12.0 mph19.3 kmh 29.82 in1009.8 mb 0.00 in0.0 mm 0.00 in0.0 mm 0.04 in1.0 mm
03:15 AM 51.4°F10.8°C 47.7°F8.7°C 87% 4.0 mph SW6.4 kmh SW 10.0 mph16.1 kmh 29.81 in1009.5 mb 0.00 in0.0 mm 0.00 in0.0 mm 0.04 in1.0 mm
03:30 AM 51.7°F10.9°C 47.6°F8.7°C 86% 5.0 mph SW8.0 kmh SW 14.0 mph22.5 kmh 29.80 in1009.1 mb 0.00 in0.0 mm 0.00 in0.0 mm 0.04 in1.0 mm
03:45 AM 51.9°F11.1°C 47.5°F8.6°C 85% 7.0 mph SW11.3 kmh SW 17.0 mph27.4 kmh 29.80 in1009.1 mb 0.00 in0.0 mm 0.00 in0.0 mm 0.04 in1.0 mm
04:00 AM 51.8°F11.0°C 48.1°F8.9°C 87% 8.0 mph SW12.9 kmh SW 19.0 mph30.6 kmh 29.80 in1009.1 mb 0.00 in0.0 mm 0.00 in0.0 mm 0.04 in1.0 mm
04:15 AM 51.6°F10.9°C 48.2°F9.0°C 88% 6.0 mph SW9.7 kmh SW 13.0 mph20.9 kmh 29.79 in1008.8 mb 0.00 in0.0 mm 0.00 in0.0 mm 0.04 in1.0 mm
04:30 AM 51.7°F10.9°C 48.3°F9.1°C 88% 6.0 mph SSW9.7 kmh SSW 14.0 mph22.5 kmh 29.78 in1008.5 mb 0.00 in0.0 mm 0.00 in0.0 mm 0.04 in1.0 mm
04:45 AM 51.9°F11.1°C 48.2°F9.0°C 87% 7.0 mph SW11.3 kmh SW 15.0 mph24.1 kmh 29.78 in1008.5 mb 0.00 in0.0 mm 0.00 in0.0 mm 0.04 in1.0 mm
05:00 AM 51.7°F10.9°C 48.0°F8.9°C 87% 10.0 mph S16.1 kmh S 18.0 mph29.0 kmh 29.77 in1008.1 mb 0.00 in0.0 mm 0.00 in0.0 mm 0.04 in1.0 mm
05:15 AM 51.6°F10.9°C 47.9°F8.8°C 87% 9.0 mph S14.5 kmh S 17.0 mph27.4 kmh 29.77 in1008.1 mb 0.00 in0.0 mm 0.00 in0.0 mm 0.04 in1.0 mm
05:30 AM 51.7°F10.9°C 48.3°F9.1°C 88% 10.0 mph S16.1 kmh S 19.0 mph30.6 kmh 29.77 in1008.1 mb 0.00 in0.0 mm 0.00 in0.0 mm 0.04 in1.0 mm
05:45 AM 51.6°F10.9°C 48.2°F9.0°C 88% 8.0 mph S12.9 kmh S 18.0 mph29.0 kmh 29.76 in1007.8 mb 0.00 in0.0 mm 0.00 in0.0 mm 0.04 in1.0 mm
06:00 AM 51.6°F10.9°C 48.5°F9.2°C 89% 9.0 mph S14.5 kmh S 20.0 mph32.2 kmh 29.76 in1007.8 mb 0.01 in0.3 mm 0.01 in0.3 mm 0.05 in1.3 mm
06:15 AM 51.3°F10.7°C 48.5°F9.2°C 90% 10.0 mph S16.1 kmh S 19.0 mph30.6 kmh 29.75 in1007.5 mb 0.02 in0.5 mm 0.04 in1.0 mm 0.06 in1.5 mm
06:30 AM 51.2°F10.7°C 48.4°F9.1°C 90% 11.0 mph S17.7 kmh S 22.0 mph35.4 kmh 29.75 in1007.5 mb 0.03 in0.8 mm 0.04 in1.0 mm 0.07 in1.8 mm
06:45 AM 51.0°F10.6°C 48.5°F9.2°C 91% 10.0 mph S16.1 kmh S 19.0 mph30.6 kmh 29.74 in1007.1 mb 0.06 in1.5 mm 0.12 in3.0 mm 0.09 in2.3 mm
07:00 AM 50.9°F10.5°C 48.1°F8.9°C 90% 13.0 mph S20.9 kmh S 23.0 mph37.0 kmh 29.73 in1006.8 mb 0.06 in1.5 mm 0.00 in0.0 mm 0.11 in2.8 mm
07:15 AM 50.9°F10.5°C 48.4°F9.1°C 91% 12.0 mph S19.3 kmh S 22.0 mph35.4 kmh 29.73 in1006.8 mb 0.08 in2.0 mm 0.08 in2.0 mm 0.14 in3.6 mm
07:30 AM 50.9°F10.5°C 48.7°F9.3°C 92% 11.0 mph S17.7 kmh S 21.0 mph33.8 kmh 29.73 in1006.8 mb 0.09 in2.3 mm 0.04 in1.0 mm 0.17 in4.3 mm
07:45 AM 50.9°F10.5°C 48.7°F9.3°C 92% 9.0 mph SSE14.5 kmh SSE 22.0 mph35.4 kmh 29.72 in1006.4 mb 0.09 in2.3 mm 0.00 in0.0 mm 0.18 in4.6 mm
08:00 AM 50.5°F10.3°C 48.6°F9.2°C 93% 9.0 mph SSE14.5 kmh SSE 21.0 mph33.8 kmh 29.72 in1006.4 mb 0.10 in2.5 mm 0.01 in0.3 mm 0.21 in5.3 mm
08:15 AM 50.5°F10.3°C 48.8°F9.3°C 94% 10.0 mph SSE16.1 kmh SSE 18.0 mph29.0 kmh 29.71 in1006.1 mb 0.12 in3.0 mm 0.08 in2.0 mm 0.26 in6.6 mm
08:30 AM 50.4°F10.2°C 48.7°F9.3°C 94% 11.0 mph SSE17.7 kmh SSE 22.0 mph35.4 kmh 29.70 in1005.8 mb 0.10 in2.5 mm 0.00 in0.0 mm 0.27 in6.9 mm
08:45 AM 50.5°F10.3°C 48.8°F9.3°C 94% 12.0 mph SSE19.3 kmh SSE 22.0 mph35.4 kmh 29.69 in1005.4 mb 0.09 in2.3 mm 0.00 in0.0 mm 0.28 in7.1 mm
09:00 AM 50.5°F10.3°C 48.8°F9.3°C 94% 12.0 mph SSE19.3 kmh SSE 26.0 mph41.8 kmh 29.68 in1005.1 mb 0.11 in2.8 mm 0.03 in0.8 mm 0.32 in8.1 mm
09:15 AM 50.5°F10.3°C 49.1°F9.5°C 95% 14.0 mph SSE22.5 kmh SSE 22.0 mph35.4 kmh 29.68 in1005.1 mb 0.09 in2.3 mm 0.00 in0.0 mm 0.35 in8.9 mm
09:30 AM 50.5°F10.3°C 49.1°F9.5°C 95% 13.0 mph SSE20.9 kmh SSE 22.0 mph35.4 kmh 29.66 in1004.4 mb 0.10 in2.5 mm 0.04 in1.0 mm 0.37 in9.4 mm
09:45 AM 50.5°F10.3°C 49.1°F9.5°C 95% 12.0 mph S19.3 kmh S 22.0 mph35.4 kmh 29.66 in1004.4 mb 0.10 in2.5 mm 0.00 in0.0 mm 0.38 in9.7 mm
10:00 AM 50.5°F10.3°C 49.1°F9.5°C 95% 13.0 mph SSE20.9 kmh SSE 25.0 mph40.2 kmh 29.65 in1004.1 mb 0.06 in1.5 mm 0.00 in0.0 mm 0.39 in9.9 mm
10:15 AM 50.5°F10.3°C 49.1°F9.5°C 95% 11.0 mph SSE17.7 kmh SSE 21.0 mph33.8 kmh 29.64 in1003.7 mb 0.04 in1.0 mm 0.00 in0.0 mm 0.39 in9.9 mm
10:30 AM 50.7°F10.4°C 49.3°F9.6°C 95% 11.0 mph S17.7 kmh S 22.0 mph35.4 kmh 29.64 in1003.7 mb 0.03 in0.8 mm 0.00 in0.0 mm 0.40 in10.2 mm
10:45 AM 50.9°F10.5°C 49.5°F9.7°C 95% 12.0 mph S19.3 kmh S 24.0 mph38.6 kmh 29.62 in1003.0 mb 0.02 in0.5 mm 0.00 in0.0 mm 0.40 in10.2 mm
11:00 AM 51.0°F10.6°C 49.9°F9.9°C 96% 13.0 mph S20.9 kmh S 25.0 mph40.2 kmh 29.61 in1002.7 mb 0.02 in0.5 mm 0.00 in0.0 mm 0.40 in10.2 mm
11:15 AM 51.3°F10.7°C 50.2°F10.1°C 96% 13.0 mph S20.9 kmh S 22.0 mph35.4 kmh 29.60 in1002.4 mb 0.01 in0.3 mm 0.00 in0.0 mm 0.40 in10.2 mm
11:30 AM 51.9°F11.1°C 50.8°F10.4°C 96% 12.0 mph S19.3 kmh S 23.0 mph37.0 kmh 29.59 in1002.0 mb 0.01 in0.3 mm 0.00 in0.0 mm 0.41 in10.4 mm
11:45 AM 52.2°F11.2°C 51.1°F10.6°C 96% 10.0 mph S16.1 kmh S 19.0 mph30.6 kmh 29.59 in1002.0 mb 0.02 in0.5 mm 0.04 in1.0 mm 0.42 in10.7 mm
12:00 PM 52.5°F11.4°C 51.4°F10.8°C 96% 10.0 mph S16.1 kmh S 18.0 mph29.0 kmh 29.58 in1001.7 mb 0.02 in0.5 mm 0.00 in0.0 mm 0.42 in10.7 mm
12:15 PM 52.9°F11.6°C 51.8°F11.0°C 96% 9.0 mph SW14.5 kmh SW 19.0 mph30.6 kmh 29.58 in1001.7 mb 0.02 in0.5 mm 0.00 in0.0 mm 0.42 in10.7 mm
12:30 PM 53.2°F11.8°C 52.1°F11.2°C 96% 9.0 mph SW14.5 kmh SW 23.0 mph37.0 kmh 29.57 in1001.4 mb 0.01 in0.3 mm 0.00 in0.0 mm 0.42 in10.7 mm
12:45 PM 53.2°F11.8°C 51.8°F11.0°C 95% 10.0 mph SW16.1 kmh SW 24.0 mph38.6 kmh 29.56 in1001.0 mb 0.00 in0.0 mm 0.00 in0.0 mm 0.42 in10.7 mm
01:00 PM 53.3°F11.8°C 52.2°F11.2°C 96% 9.0 mph SW14.5 kmh SW 19.0 mph30.6 kmh 29.56 in1001.0 mb 0.00 in0.0 mm 0.00 in0.0 mm 0.42 in10.7 mm
01:15 PM 53.3°F11.8°C 52.2°F11.2°C 96% 9.0 mph SW14.5 kmh SW 19.0 mph30.6 kmh 29.56 in1001.0 mb 0.00 in0.0 mm 0.00 in0.0 mm 0.42 in10.7 mm
01:30 PM 53.4°F11.9°C 52.3°F11.3°C 96% 10.0 mph SW16.1 kmh SW 19.0 mph30.6 kmh 29.55 in1000.7 mb 0.00 in0.0 mm 0.00 in0.0 mm 0.42 in10.7 mm
01:45 PM 53.5°F11.9°C 52.7°F11.5°C 97% 9.0 mph SW14.5 kmh SW 19.0 mph30.6 kmh 29.55 in1000.7 mb 0.00 in0.0 mm 0.00 in0.0 mm 0.42 in10.7 mm
02:00 PM 53.6°F12.0°C 52.8°F11.6°C 97% 9.0 mph SW14.5 kmh SW 20.0 mph32.2 kmh 29.54 in1000.3 mb 0.00 in0.0 mm 0.00 in0.0 mm 0.42 in10.7 mm
02:15 PM 53.7°F12.1°C 52.9°F11.6°C 97% 10.0 mph SW16.1 kmh SW 20.0 mph32.2 kmh 29.53 in1000.0 mb 0.01 in0.3 mm 0.04 in1.0 mm 0.43 in10.9 mm
02:30 PM 53.7°F12.1°C 52.9°F11.6°C 97% 9.0 mph SW14.5 kmh SW 23.0 mph37.0 kmh 29.53 in1000.0 mb 0.01 in0.3 mm 0.00 in0.0 mm 0.43 in10.9 mm
02:45 PM 53.9°F12.2°C 53.1°F11.7°C 97% 9.0 mph SW14.5 kmh SW 19.0 mph30.6 kmh 29.54 in1000.3 mb 0.01 in0.3 mm 0.00 in0.0 mm 0.43 in10.9 mm
03:00 PM 53.9°F12.2°C 53.1°F11.7°C 97% 10.0 mph SW16.1 kmh SW 22.0 mph35.4 kmh 29.54 in1000.3 mb 0.01 in0.3 mm 0.00 in0.0 mm 0.43 in10.9 mm
03:15 PM 53.9°F12.2°C 53.1°F11.7°C 97% 10.0 mph SW16.1 kmh SW 18.0 mph29.0 kmh 29.54 in1000.3 mb 0.00 in0.0 mm 0.00 in0.0 mm 0.43 in10.9 mm
03:30 PM 53.7°F12.1°C 52.9°F11.6°C 97% 6.0 mph SW9.7 kmh SW 17.0 mph27.4 kmh 29.54 in1000.3 mb 0.00 in0.0 mm 0.00 in0.0 mm 0.43 in10.9 mm
03:45 PM 53.5°F11.9°C 52.7°F11.5°C 97% 4.0 mph WSW6.4 kmh WSW 12.0 mph19.3 kmh 29.54 in1000.3 mb 0.00 in0.0 mm 0.00 in0.0 mm 0.43 in10.9 mm
04:00 PM 53.5°F11.9°C 52.7°F11.5°C 97% 6.0 mph SW9.7 kmh SW 15.0 mph24.1 kmh 29.54 in1000.3 mb 0.01 in0.3 mm 0.01 in0.3 mm 0.43 in10.9 mm
04:15 PM 53.3°F11.8°C 52.5°F11.4°C 97% 5.0 mph SW8.0 kmh SW 11.0 mph17.7 kmh 29.54 in1000.3 mb 0.01 in0.3 mm 0.00 in0.0 mm 0.43 in10.9 mm
04:30 PM 53.2°F11.8°C 52.4°F11.3°C 97% 5.0 mph SW8.0 kmh SW 12.0 mph19.3 kmh 29.54 in1000.3 mb 0.01 in0.3 mm 0.00 in0.0 mm 0.43 in10.9 mm
04:45 PM 53.2°F11.8°C 52.4°F11.3°C 97% 5.0 mph SW8.0 kmh SW 13.0 mph20.9 kmh 29.54 in1000.3 mb 0.01 in0.3 mm 0.00 in0.0 mm 0.43 in10.9 mm
05:00 PM 53.2°F11.8°C 52.4°F11.3°C 97% 4.0 mph WSW6.4 kmh WSW 13.0 mph20.9 kmh 29.54 in1000.3 mb 0.00 in0.0 mm 0.00 in0.0 mm 0.43 in10.9 mm
05:15 PM 53.2°F11.8°C 52.4°F11.3°C 97% 5.0 mph SW8.0 kmh SW 13.0 mph20.9 kmh 29.54 in1000.3 mb 0.00 in0.0 mm 0.00 in0.0 mm 0.43 in10.9 mm
05:30 PM 53.2°F11.8°C 52.4°F11.3°C 97% 5.0 mph SW8.0 kmh SW 14.0 mph22.5 kmh 29.54 in1000.3 mb 0.00 in0.0 mm 0.00 in0.0 mm 0.43 in10.9 mm
05:45 PM 53.1°F11.7°C 52.3°F11.3°C 97% 6.0 mph WSW9.7 kmh WSW 14.0 mph22.5 kmh 29.54 in1000.3 mb 0.00 in0.0 mm 0.00 in0.0 mm 0.43 in10.9 mm
06:00 PM 53.0°F11.7°C 52.2°F11.2°C 97% 5.0 mph WSW8.0 kmh WSW 12.0 mph19.3 kmh 29.53 in1000.0 mb 0.00 in0.0 mm 0.00 in0.0 mm 0.43 in10.9 mm
06:15 PM 52.7°F11.5°C 51.9°F11.1°C 97% 6.0 mph SW9.7 kmh SW 15.0 mph24.1 kmh 29.53 in1000.0 mb 0.00 in0.0 mm 0.00 in0.0 mm 0.43 in10.9 mm
06:30 PM 52.8°F11.6°C 52.0°F11.1°C 97% 6.0 mph SW9.7 kmh SW 14.0 mph22.5 kmh 29.53 in1000.0 mb 0.00 in0.0 mm 0.00 in0.0 mm 0.43 in10.9 mm
06:45 PM 52.5°F11.4°C 51.7°F10.9°C 97% 4.0 mph WSW6.4 kmh WSW 13.0 mph20.9 kmh 29.54 in1000.3 mb 0.00 in0.0 mm 0.00 in0.0 mm 0.43 in10.9 mm
07:00 PM 52.6°F11.4°C 51.8°F11.0°C 97% 5.0 mph WSW8.0 kmh WSW 14.0 mph22.5 kmh 29.53 in1000.0 mb 0.00 in0.0 mm 0.00 in0.0 mm 0.43 in10.9 mm
07:15 PM 52.8°F11.6°C 52.0°F11.1°C 97% 6.0 mph SW9.7 kmh SW 13.0 mph20.9 kmh 29.53 in1000.0 mb 0.00 in0.0 mm 0.00 in0.0 mm 0.43 in10.9 mm
07:30 PM 52.8°F11.6°C 52.0°F11.1°C 97% 5.0 mph SW8.0 kmh SW 16.0 mph25.7 kmh 29.53 in1000.0 mb 0.00 in0.0 mm 0.00 in0.0 mm 0.43 in10.9 mm
07:45 PM 52.8°F11.6°C 52.0°F11.1°C 97% 6.0 mph WSW9.7 kmh WSW 16.0 mph25.7 kmh 29.52 in999.7 mb 0.00 in0.0 mm 0.00 in0.0 mm 0.43 in10.9 mm
08:00 PM 52.7°F11.5°C 51.9°F11.1°C 97% 4.0 mph SW6.4 kmh SW 10.0 mph16.1 kmh 29.52 in999.7 mb 0.00 in0.0 mm 0.00 in0.0 mm 0.43 in10.9 mm
08:15 PM 52.7°F11.5°C 51.9°F11.1°C 97% 4.0 mph WSW6.4 kmh WSW 11.0 mph17.7 kmh 29.52 in999.7 mb 0.00 in0.0 mm 0.00 in0.0 mm 0.43 in10.9 mm
08:30 PM 52.6°F11.4°C 51.8°F11.0°C 97% 3.0 mph SW4.8 kmh SW 10.0 mph16.1 kmh 29.51 in999.3 mb 0.00 in0.0 mm 0.00 in0.0 mm 0.43 in10.9 mm
08:45 PM 52.7°F11.5°C 51.9°F11.1°C 97% 4.0 mph SW6.4 kmh SW 10.0 mph16.1 kmh 29.52 in999.7 mb 0.00 in0.0 mm 0.00 in0.0 mm 0.43 in10.9 mm
09:00 PM 52.8°F11.6°C 52.0°F11.1°C 97% 3.0 mph SW4.8 kmh SW 10.0 mph16.1 kmh 29.52 in999.7 mb 0.00 in0.0 mm 0.00 in0.0 mm 0.43 in10.9 mm
09:15 PM 52.9°F11.6°C 52.1°F11.2°C 97% 4.0 mph SW6.4 kmh SW 10.0 mph16.1 kmh 29.52 in999.7 mb 0.00 in0.0 mm 0.00 in0.0 mm 0.43 in10.9 mm
09:30 PM 53.0°F11.7°C 52.2°F11.2°C 97% 4.0 mph SW6.4 kmh SW 10.0 mph16.1 kmh 29.51 in999.3 mb 0.00 in0.0 mm 0.00 in0.0 mm 0.43 in10.9 mm
09:45 PM 53.0°F11.7°C 52.2°F11.2°C 97% 3.0 mph SW4.8 kmh SW 10.0 mph16.1 kmh 29.51 in999.3 mb 0.00 in0.0 mm 0.00 in0.0 mm 0.43 in10.9 mm
10:00 PM 53.0°F11.7°C 52.2°F11.2°C 97% 4.0 mph SW6.4 kmh SW 10.0 mph16.1 kmh 29.50 in999.0 mb 0.00 in0.0 mm 0.00 in0.0 mm 0.43 in10.9 mm
10:15 PM 53.1°F11.7°C 52.3°F11.3°C 97% 3.0 mph SW4.8 kmh SW 11.0 mph17.7 kmh 29.50 in999.0 mb 0.01 in0.3 mm 0.04 in1.0 mm 0.44 in11.2 mm
10:30 PM 53.2°F11.8°C 52.4°F11.3°C 97% 3.0 mph SW4.8 kmh SW 8.0 mph12.9 kmh 29.49 in998.6 mb 0.02 in0.5 mm 0.04 in1.0 mm 0.46 in11.7 mm
10:45 PM 53.2°F11.8°C 52.4°F11.3°C 97% 2.0 mph SW3.2 kmh SW 8.0 mph12.9 kmh 29.49 in998.6 mb 0.06 in1.5 mm 0.16 in4.1 mm 0.49 in12.4 mm
11:00 PM 53.4°F11.9°C 52.6°F11.4°C 97% 3.0 mph SW4.8 kmh SW 9.0 mph14.5 kmh 29.48 in998.3 mb 0.11 in2.8 mm 0.07 in1.8 mm 0.54 in13.7 mm
11:15 PM 53.6°F12.0°C 52.8°F11.6°C 97% 4.0 mph SW6.4 kmh SW 9.0 mph14.5 kmh 29.48 in998.3 mb 0.16 in4.1 mm 0.20 in5.1 mm 0.60 in15.2 mm
11:30 PM 53.9°F12.2°C 53.3°F11.8°C 98% 5.0 mph SW8.0 kmh SW 11.0 mph17.7 kmh 29.47 in998.0 mb 0.15 in3.8 mm 0.00 in0.0 mm 0.61 in15.5 mm
11:45 PM 54.1°F12.3°C 53.5°F11.9°C 98% 6.0 mph SW9.7 kmh SW 13.0 mph20.9 kmh 29.46 in997.6 mb 0.13 in3.3 mm 0.00 in0.0 mm 0.62 in15.7 mm